sensor_id;sensor_type;location;lat;lon;timestamp;P1;durP1;ratioP1;P2;durP2;ratioP2
56005;SDS011;41888;44.696;10.522;2023-02-04T00:02:10;56.53;;;25.73;;
56005;SDS011;41888;44.696;10.522;2023-02-04T00:04:36;45.15;;;23.02;;
56005;SDS011;41888;44.696;10.522;2023-02-04T00:07:02;56.67;;;23.85;;
56005;SDS011;41888;44.696;10.522;2023-02-04T00:09:28;49.30;;;23.52;;
56005;SDS011;41888;44.696;10.522;2023-02-04T00:11:54;52.42;;;23.92;;
56005;SDS011;41888;44.696;10.522;2023-02-04T00:14:20;42.00;;;23.10;;
56005;SDS011;41888;44.696;10.522;2023-02-04T00:16:47;48.08;;;21.92;;
56005;SDS011;41888;44.696;10.522;2023-02-04T00:19:13;51.88;;;23.13;;
56005;SDS011;41888;44.696;10.522;2023-02-04T00:21:41;38.90;;;21.90;;
56005;SDS011;41888;44.696;10.522;2023-02-04T00:24:07;42.40;;;22.27;;
56005;SDS011;41888;44.696;10.522;2023-02-04T00:26:34;50.38;;;22.65;;
56005;SDS011;41888;44.696;10.522;2023-02-04T00:29:00;42.95;;;21.13;;
56005;SDS011;41888;44.696;10.522;2023-02-04T00:31:26;45.20;;;22.02;;
56005;SDS011;41888;44.696;10.522;2023-02-04T00:33:52;47.47;;;23.55;;
56005;SDS011;41888;44.696;10.522;2023-02-04T00:36:18;46.25;;;22.10;;
56005;SDS011;41888;44.696;10.522;2023-02-04T00:38:44;45.13;;;21.65;;
56005;SDS011;41888;44.696;10.522;2023-02-04T00:41:10;52.75;;;23.75;;
56005;SDS011;41888;44.696;10.522;2023-02-04T00:43:37;48.28;;;23.95;;
56005;SDS011;41888;44.696;10.522;2023-02-04T00:46:03;49.53;;;24.77;;
56005;SDS011;41888;44.696;10.522;2023-02-04T00:48:29;55.17;;;24.48;;
56005;SDS011;41888;44.696;10.522;2023-02-04T00:50:55;50.45;;;24.27;;
56005;SDS011;41888;44.696;10.522;2023-02-04T00:53:21;57.88;;;26.10;;
56005;SDS011;41888;44.696;10.522;2023-02-04T00:55:47;54.70;;;24.42;;
56005;SDS011;41888;44.696;10.522;2023-02-04T00:58:14;47.78;;;22.58;;
56005;SDS011;41888;44.696;10.522;2023-02-04T01:00:40;49.85;;;23.73;;
56005;SDS011;41888;44.696;10.522;2023-02-04T01:03:06;49.22;;;23.70;;
56005;SDS011;41888;44.696;10.522;2023-02-04T01:05:32;51.05;;;23.90;;
56005;SDS011;41888;44.696;10.522;2023-02-04T01:07:58;47.85;;;23.40;;
56005;SDS011;41888;44.696;10.522;2023-02-04T01:10:24;52.45;;;24.90;;
56005;SDS011;41888;44.696;10.522;2023-02-04T01:12:51;53.00;;;24.00;;
56005;SDS011;41888;44.696;10.522;2023-02-04T01:15:17;47.58;;;23.55;;
56005;SDS011;41888;44.696;10.522;2023-02-04T01:17:43;49.30;;;22.75;;
56005;SDS011;41888;44.696;10.522;2023-02-04T01:20:09;46.17;;;21.55;;
56005;SDS011;41888;44.696;10.522;2023-02-04T01:22:36;54.70;;;23.20;;
56005;SDS011;41888;44.696;10.522;2023-02-04T01:25:02;53.30;;;22.85;;
56005;SDS011;41888;44.696;10.522;2023-02-04T01:27:28;44.65;;;21.92;;
56005;SDS011;41888;44.696;10.522;2023-02-04T01:29:54;39.80;;;21.33;;
56005;SDS011;41888;44.696;10.522;2023-02-04T01:32:21;45.40;;;21.88;;
56005;SDS011;41888;44.696;10.522;2023-02-04T01:34:47;49.90;;;23.00;;
56005;SDS011;41888;44.696;10.522;2023-02-04T01:37:13;45.00;;;23.38;;
56005;SDS011;41888;44.696;10.522;2023-02-04T01:39:39;41.22;;;23.23;;
56005;SDS011;41888;44.696;10.522;2023-02-04T01:42:05;40.90;;;22.80;;
56005;SDS011;41888;44.696;10.522;2023-02-04T01:44:32;47.97;;;23.85;;
56005;SDS011;41888;44.696;10.522;2023-02-04T01:46:58;47.25;;;22.77;;
56005;SDS011;41888;44.696;10.522;2023-02-04T01:49:25;49.95;;;22.90;;
56005;SDS011;41888;44.696;10.522;2023-02-04T01:51:51;45.13;;;22.60;;
56005;SDS011;41888;44.696;10.522;2023-02-04T01:54:17;47.97;;;24.60;;
56005;SDS011;41888;44.696;10.522;2023-02-04T01:56:45;41.35;;;22.75;;
56005;SDS011;41888;44.696;10.522;2023-02-04T01:59:13;52.65;;;24.13;;
56005;SDS011;41888;44.696;10.522;2023-02-04T02:01:46;41.30;;;21.52;;
56005;SDS011;41888;44.696;10.522;2023-02-04T02:04:14;44.10;;;21.75;;
56005;SDS011;41888;44.696;10.522;2023-02-04T02:06:46;48.25;;;22.55;;
56005;SDS011;41888;44.696;10.522;2023-02-04T02:09:17;45.45;;;20.75;;
56005;SDS011;41888;44.696;10.522;2023-02-04T02:11:44;42.47;;;22.42;;
56005;SDS011;41888;44.696;10.522;2023-02-04T02:14:10;44.10;;;23.33;;
56005;SDS011;41888;44.696;10.522;2023-02-04T02:16:37;43.53;;;21.60;;
56005;SDS011;41888;44.696;10.522;2023-02-04T02:19:03;40.40;;;21.52;;
56005;SDS011;41888;44.696;10.522;2023-02-04T02:21:38;41.65;;;20.83;;
56005;SDS011;41888;44.696;10.522;2023-02-04T02:24:22;41.08;;;21.05;;
56005;SDS011;41888;44.696;10.522;2023-02-04T02:26:53;41.03;;;20.48;;
56005;SDS011;41888;44.696;10.522;2023-02-04T02:29:21;41.97;;;20.42;;
56005;SDS011;41888;44.696;10.522;2023-02-04T02:31:48;42.75;;;21.15;;
56005;SDS011;41888;44.696;10.522;2023-02-04T02:34:15;40.25;;;21.38;;
56005;SDS011;41888;44.696;10.522;2023-02-04T02:36:41;39.85;;;19.60;;
56005;SDS011;41888;44.696;10.522;2023-02-04T02:39:08;39.30;;;18.98;;
56005;SDS011;41888;44.696;10.522;2023-02-04T02:41:35;40.80;;;21.25;;
56005;SDS011;41888;44.696;10.522;2023-02-04T02:44:01;38.92;;;20.13;;
56005;SDS011;41888;44.696;10.522;2023-02-04T02:46:27;41.08;;;19.10;;
56005;SDS011;41888;44.696;10.522;2023-02-04T02:48:54;42.13;;;19.75;;
56005;SDS011;41888;44.696;10.522;2023-02-04T02:51:20;40.83;;;21.10;;
56005;SDS011;41888;44.696;10.522;2023-02-04T02:53:46;34.95;;;18.83;;
56005;SDS011;41888;44.696;10.522;2023-02-04T02:56:14;41.80;;;20.25;;
56005;SDS011;41888;44.696;10.522;2023-02-04T02:58:42;47.28;;;21.27;;
56005;SDS011;41888;44.696;10.522;2023-02-04T03:01:08;44.13;;;19.70;;
56005;SDS011;41888;44.696;10.522;2023-02-04T03:03:37;41.92;;;19.30;;
56005;SDS011;41888;44.696;10.522;2023-02-04T03:06:09;36.95;;;18.92;;
56005;SDS011;41888;44.696;10.522;2023-02-04T03:08:37;36.83;;;19.35;;
56005;SDS011;41888;44.696;10.522;2023-02-04T03:11:04;41.78;;;19.17;;
56005;SDS011;41888;44.696;10.522;2023-02-04T03:13:31;43.60;;;18.35;;
56005;SDS011;41888;44.696;10.522;2023-02-04T03:15:58;40.83;;;19.33;;
56005;SDS011;41888;44.696;10.522;2023-02-04T03:18:25;36.47;;;18.08;;
56005;SDS011;41888;44.696;10.522;2023-02-04T03:20:52;36.22;;;18.27;;
56005;SDS011;41888;44.696;10.522;2023-02-04T03:23:18;40.30;;;17.98;;
56005;SDS011;41888;44.696;10.522;2023-02-04T03:25:45;35.88;;;16.25;;
56005;SDS011;41888;44.696;10.522;2023-02-04T03:28:11;34.50;;;18.63;;
56005;SDS011;41888;44.696;10.522;2023-02-04T03:30:37;44.70;;;18.63;;
56005;SDS011;41888;44.696;10.522;2023-02-04T03:33:03;41.58;;;17.23;;
56005;SDS011;41888;44.696;10.522;2023-02-04T03:35:30;39.83;;;18.75;;
56005;SDS011;41888;44.696;10.522;2023-02-04T03:37:56;40.80;;;19.83;;
56005;SDS011;41888;44.696;10.522;2023-02-04T03:40:22;39.00;;;19.60;;
56005;SDS011;41888;44.696;10.522;2023-02-04T03:42:48;38.92;;;19.42;;
56005;SDS011;41888;44.696;10.522;2023-02-04T03:45:15;44.60;;;20.73;;
56005;SDS011;41888;44.696;10.522;2023-02-04T03:47:41;34.83;;;18.15;;
56005;SDS011;41888;44.696;10.522;2023-02-04T03:50:07;35.70;;;17.60;;
56005;SDS011;41888;44.696;10.522;2023-02-04T03:52:36;39.40;;;19.77;;
56005;SDS011;41888;44.696;10.522;2023-02-04T03:55:02;39.47;;;21.02;;
56005;SDS011;41888;44.696;10.522;2023-02-04T03:57:29;36.88;;;18.30;;
56005;SDS011;41888;44.696;10.522;2023-02-04T03:59:55;39.45;;;17.17;;
56005;SDS011;41888;44.696;10.522;2023-02-04T04:02:21;38.40;;;19.63;;
56005;SDS011;41888;44.696;10.522;2023-02-04T04:04:47;35.80;;;18.42;;
56005;SDS011;41888;44.696;10.522;2023-02-04T04:07:13;35.78;;;18.38;;
56005;SDS011;41888;44.696;10.522;2023-02-04T04:09:39;37.20;;;18.35;;
56005;SDS011;41888;44.696;10.522;2023-02-04T04:12:05;36.30;;;17.73;;
56005;SDS011;41888;44.696;10.522;2023-02-04T04:14:32;32.33;;;16.35;;
56005;SDS011;41888;44.696;10.522;2023-02-04T04:16:58;35.28;;;17.45;;
56005;SDS011;41888;44.696;10.522;2023-02-04T04:19:24;37.47;;;17.67;;
56005;SDS011;41888;44.696;10.522;2023-02-04T04:21:50;38.15;;;16.98;;
56005;SDS011;41888;44.696;10.522;2023-02-04T04:24:16;36.78;;;18.85;;
56005;SDS011;41888;44.696;10.522;2023-02-04T04:26:42;38.45;;;18.45;;
56005;SDS011;41888;44.696;10.522;2023-02-04T04:29:09;39.42;;;19.27;;
56005;SDS011;41888;44.696;10.522;2023-02-04T04:31:35;31.63;;;16.58;;
56005;SDS011;41888;44.696;10.522;2023-02-04T04:34:01;33.05;;;15.77;;
56005;SDS011;41888;44.696;10.522;2023-02-04T04:36:27;36.03;;;17.95;;
56005;SDS011;41888;44.696;10.522;2023-02-04T04:38:53;36.42;;;16.83;;
56005;SDS011;41888;44.696;10.522;2023-02-04T04:41:19;35.47;;;15.95;;
56005;SDS011;41888;44.696;10.522;2023-02-04T04:43:45;37.95;;;18.05;;
56005;SDS011;41888;44.696;10.522;2023-02-04T04:46:12;32.75;;;16.40;;
56005;SDS011;41888;44.696;10.522;2023-02-04T04:48:38;35.05;;;17.40;;
56005;SDS011;41888;44.696;10.522;2023-02-04T04:51:04;34.83;;;16.63;;
56005;SDS011;41888;44.696;10.522;2023-02-04T04:53:30;34.97;;;16.35;;
56005;SDS011;41888;44.696;10.522;2023-02-04T04:55:56;36.40;;;17.42;;
56005;SDS011;41888;44.696;10.522;2023-02-04T04:58:22;39.03;;;17.40;;
56005;SDS011;41888;44.696;10.522;2023-02-04T05:00:49;30.50;;;15.98;;
56005;SDS011;41888;44.696;10.522;2023-02-04T05:03:15;35.35;;;18.20;;
56005;SDS011;41888;44.696;10.522;2023-02-04T05:05:41;33.78;;;16.95;;
56005;SDS011;41888;44.696;10.522;2023-02-04T05:08:08;31.23;;;16.00;;
56005;SDS011;41888;44.696;10.522;2023-02-04T05:10:40;31.45;;;16.00;;
56005;SDS011;41888;44.696;10.522;2023-02-04T05:13:07;36.42;;;17.98;;
56005;SDS011;41888;44.696;10.522;2023-02-04T05:15:33;33.42;;;16.25;;
56005;SDS011;41888;44.696;10.522;2023-02-04T05:18:00;33.03;;;15.40;;
56005;SDS011;41888;44.696;10.522;2023-02-04T05:20:26;34.55;;;15.70;;
56005;SDS011;41888;44.696;10.522;2023-02-04T05:22:52;31.08;;;15.40;;
56005;SDS011;41888;44.696;10.522;2023-02-04T05:25:20;34.80;;;17.80;;
56005;SDS011;41888;44.696;10.522;2023-02-04T05:27:47;34.42;;;17.00;;
56005;SDS011;41888;44.696;10.522;2023-02-04T05:30:14;36.88;;;17.48;;
56005;SDS011;41888;44.696;10.522;2023-02-04T05:32:40;36.53;;;17.58;;
56005;SDS011;41888;44.696;10.522;2023-02-04T05:35:06;36.00;;;17.15;;
56005;SDS011;41888;44.696;10.522;2023-02-04T05:37:33;30.73;;;15.70;;
56005;SDS011;41888;44.696;10.522;2023-02-04T05:39:59;36.65;;;15.55;;
56005;SDS011;41888;44.696;10.522;2023-02-04T05:42:25;39.28;;;17.02;;
56005;SDS011;41888;44.696;10.522;2023-02-04T05:44:51;31.80;;;16.83;;
56005;SDS011;41888;44.696;10.522;2023-02-04T05:47:17;35.38;;;15.63;;
56005;SDS011;41888;44.696;10.522;2023-02-04T05:49:44;32.80;;;16.10;;
56005;SDS011;41888;44.696;10.522;2023-02-04T05:52:10;34.38;;;14.90;;
56005;SDS011;41888;44.696;10.522;2023-02-04T05:54:37;30.25;;;15.18;;
56005;SDS011;41888;44.696;10.522;2023-02-04T05:57:03;32.25;;;15.80;;
56005;SDS011;41888;44.696;10.522;2023-02-04T05:59:29;29.70;;;14.57;;
56005;SDS011;41888;44.696;10.522;2023-02-04T06:01:55;24.38;;;13.23;;
56005;SDS011;41888;44.696;10.522;2023-02-04T06:04:21;27.67;;;13.90;;
56005;SDS011;41888;44.696;10.522;2023-02-04T06:06:47;28.15;;;14.02;;
56005;SDS011;41888;44.696;10.522;2023-02-04T06:09:14;27.85;;;14.40;;
56005;SDS011;41888;44.696;10.522;2023-02-04T06:11:40;30.27;;;14.13;;
56005;SDS011;41888;44.696;10.522;2023-02-04T06:14:06;31.90;;;13.60;;
56005;SDS011;41888;44.696;10.522;2023-02-04T06:16:32;29.77;;;13.05;;
56005;SDS011;41888;44.696;10.522;2023-02-04T06:18:58;24.70;;;12.70;;
56005;SDS011;41888;44.696;10.522;2023-02-04T06:21:25;24.85;;;13.95;;
56005;SDS011;41888;44.696;10.522;2023-02-04T06:23:51;29.25;;;14.10;;
56005;SDS011;41888;44.696;10.522;2023-02-04T06:26:17;25.20;;;13.35;;
56005;SDS011;41888;44.696;10.522;2023-02-04T06:28:43;32.78;;;13.65;;
56005;SDS011;41888;44.696;10.522;2023-02-04T06:31:09;27.23;;;14.73;;
56005;SDS011;41888;44.696;10.522;2023-02-04T06:33:35;29.05;;;13.00;;
56005;SDS011;41888;44.696;10.522;2023-02-04T06:36:02;25.65;;;13.10;;
56005;SDS011;41888;44.696;10.522;2023-02-04T06:38:29;27.50;;;14.30;;
56005;SDS011;41888;44.696;10.522;2023-02-04T06:40:55;29.08;;;13.57;;
56005;SDS011;41888;44.696;10.522;2023-02-04T06:43:21;26.17;;;13.77;;
56005;SDS011;41888;44.696;10.522;2023-02-04T06:45:49;29.50;;;13.95;;
56005;SDS011;41888;44.696;10.522;2023-02-04T06:48:16;29.65;;;14.30;;
56005;SDS011;41888;44.696;10.522;2023-02-04T06:50:42;30.20;;;13.32;;
56005;SDS011;41888;44.696;10.522;2023-02-04T06:53:08;28.58;;;13.98;;
56005;SDS011;41888;44.696;10.522;2023-02-04T06:55:35;27.67;;;13.18;;
56005;SDS011;41888;44.696;10.522;2023-02-04T06:58:01;26.90;;;12.77;;
56005;SDS011;41888;44.696;10.522;2023-02-04T07:00:27;29.90;;;13.40;;
56005;SDS011;41888;44.696;10.522;2023-02-04T07:02:55;27.17;;;13.55;;
56005;SDS011;41888;44.696;10.522;2023-02-04T07:05:22;27.52;;;13.85;;
56005;SDS011;41888;44.696;10.522;2023-02-04T07:07:49;22.67;;;12.45;;
56005;SDS011;41888;44.696;10.522;2023-02-04T07:10:16;24.55;;;13.02;;
56005;SDS011;41888;44.696;10.522;2023-02-04T07:12:44;22.15;;;12.75;;
56005;SDS011;41888;44.696;10.522;2023-02-04T07:15:11;24.40;;;13.52;;
56005;SDS011;41888;44.696;10.522;2023-02-04T07:17:37;21.02;;;11.32;;
56005;SDS011;41888;44.696;10.522;2023-02-04T07:20:03;26.60;;;12.35;;
56005;SDS011;41888;44.696;10.522;2023-02-04T07:22:30;22.27;;;13.13;;
56005;SDS011;41888;44.696;10.522;2023-02-04T07:24:56;19.45;;;9.85;;
56005;SDS011;41888;44.696;10.522;2023-02-04T07:27:22;23.27;;;11.60;;
56005;SDS011;41888;44.696;10.522;2023-02-04T07:29:48;22.45;;;11.75;;
56005;SDS011;41888;44.696;10.522;2023-02-04T07:32:14;20.60;;;10.13;;
56005;SDS011;41888;44.696;10.522;2023-02-04T07:34:40;20.10;;;9.93;;
56005;SDS011;41888;44.696;10.522;2023-02-04T07:37:06;17.92;;;9.45;;
56005;SDS011;41888;44.696;10.522;2023-02-04T07:39:33;20.88;;;8.82;;
56005;SDS011;41888;44.696;10.522;2023-02-04T07:41:59;15.25;;;8.07;;
56005;SDS011;41888;44.696;10.522;2023-02-04T07:44:25;20.33;;;8.00;;
56005;SDS011;41888;44.696;10.522;2023-02-04T07:46:51;15.43;;;8.27;;
56005;SDS011;41888;44.696;10.522;2023-02-04T07:49:17;12.85;;;7.57;;
56005;SDS011;41888;44.696;10.522;2023-02-04T07:51:44;20.45;;;8.13;;
56005;SDS011;41888;44.696;10.522;2023-02-04T07:54:10;14.57;;;7.60;;
56005;SDS011;41888;44.696;10.522;2023-02-04T07:56:36;15.23;;;7.45;;
56005;SDS011;41888;44.696;10.522;2023-02-04T07:59:02;15.27;;;7.55;;
56005;SDS011;41888;44.696;10.522;2023-02-04T08:01:28;16.35;;;7.47;;
56005;SDS011;41888;44.696;10.522;2023-02-04T08:03:54;16.67;;;8.27;;
56005;SDS011;41888;44.696;10.522;2023-02-04T08:06:20;14.93;;;9.52;;
56005;SDS011;41888;44.696;10.522;2023-02-04T08:08:47;15.45;;;8.50;;
56005;SDS011;41888;44.696;10.522;2023-02-04T08:11:13;13.60;;;8.57;;
56005;SDS011;41888;44.696;10.522;2023-02-04T08:13:39;17.33;;;7.43;;
56005;SDS011;41888;44.696;10.522;2023-02-04T08:16:05;11.10;;;7.35;;
56005;SDS011;41888;44.696;10.522;2023-02-04T08:18:31;15.23;;;7.85;;
56005;SDS011;41888;44.696;10.522;2023-02-04T08:20:58;15.38;;;7.97;;
56005;SDS011;41888;44.696;10.522;2023-02-04T08:23:25;15.35;;;7.90;;
56005;SDS011;41888;44.696;10.522;2023-02-04T08:25:51;12.52;;;8.13;;
56005;SDS011;41888;44.696;10.522;2023-02-04T08:28:17;19.15;;;9.65;;
56005;SDS011;41888;44.696;10.522;2023-02-04T08:30:43;19.17;;;10.00;;
56005;SDS011;41888;44.696;10.522;2023-02-04T08:33:10;16.58;;;8.73;;
56005;SDS011;41888;44.696;10.522;2023-02-04T08:35:36;17.00;;;9.50;;
56005;SDS011;41888;44.696;10.522;2023-02-04T08:38:02;28.50;;;10.95;;
56005;SDS011;41888;44.696;10.522;2023-02-04T08:40:28;34.33;;;14.35;;
56005;SDS011;41888;44.696;10.522;2023-02-04T08:42:54;16.40;;;8.93;;
56005;SDS011;41888;44.696;10.522;2023-02-04T08:45:20;13.52;;;8.20;;
56005;SDS011;41888;44.696;10.522;2023-02-04T08:47:46;14.73;;;8.15;;
56005;SDS011;41888;44.696;10.522;2023-02-04T08:50:13;13.20;;;8.40;;
56005;SDS011;41888;44.696;10.522;2023-02-04T08:52:39;12.55;;;7.95;;
56005;SDS011;41888;44.696;10.522;2023-02-04T08:55:05;13.55;;;8.23;;
56005;SDS011;41888;44.696;10.522;2023-02-04T08:57:32;13.02;;;8.45;;
56005;SDS011;41888;44.696;10.522;2023-02-04T08:59:59;16.42;;;7.07;;
56005;SDS011;41888;44.696;10.522;2023-02-04T09:02:25;12.57;;;8.25;;
56005;SDS011;41888;44.696;10.522;2023-02-04T09:04:51;13.18;;;6.50;;
56005;SDS011;41888;44.696;10.522;2023-02-04T09:07:17;14.55;;;6.85;;
56005;SDS011;41888;44.696;10.522;2023-02-04T09:09:43;10.13;;;6.40;;
56005;SDS011;41888;44.696;10.522;2023-02-04T09:12:10;13.05;;;6.97;;
56005;SDS011;41888;44.696;10.522;2023-02-04T09:14:36;11.98;;;6.40;;
56005;SDS011;41888;44.696;10.522;2023-02-04T09:17:02;12.00;;;6.90;;
56005;SDS011;41888;44.696;10.522;2023-02-04T09:19:29;11.02;;;6.30;;
56005;SDS011;41888;44.696;10.522;2023-02-04T09:21:55;12.15;;;6.78;;
56005;SDS011;41888;44.696;10.522;2023-02-04T09:24:22;11.65;;;7.05;;
56005;SDS011;41888;44.696;10.522;2023-02-04T09:26:48;12.20;;;6.85;;
56005;SDS011;41888;44.696;10.522;2023-02-04T09:29:14;11.95;;;6.88;;
56005;SDS011;41888;44.696;10.522;2023-02-04T09:31:40;13.05;;;6.43;;
56005;SDS011;41888;44.696;10.522;2023-02-04T09:34:07;11.23;;;6.90;;
56005;SDS011;41888;44.696;10.522;2023-02-04T09:36:33;14.90;;;8.20;;
56005;SDS011;41888;44.696;10.522;2023-02-04T09:39:02;13.15;;;8.05;;
56005;SDS011;41888;44.696;10.522;2023-02-04T09:41:30;14.90;;;10.02;;
56005;SDS011;41888;44.696;10.522;2023-02-04T09:43:57;13.40;;;8.93;;
56005;SDS011;41888;44.696;10.522;2023-02-04T09:46:24;12.80;;;7.38;;
56005;SDS011;41888;44.696;10.522;2023-02-04T09:48:56;11.88;;;7.13;;
56005;SDS011;41888;44.696;10.522;2023-02-04T09:51:27;9.77;;;6.93;;
56005;SDS011;41888;44.696;10.522;2023-02-04T09:54:03;13.05;;;7.95;;
56005;SDS011;41888;44.696;10.522;2023-02-04T09:56:38;10.52;;;6.35;;
56005;SDS011;41888;44.696;10.522;2023-02-04T10:02:00;8.65;;;5.57;;
56005;SDS011;41888;44.696;10.522;2023-02-04T10:04:32;13.18;;;6.28;;
56005;SDS011;41888;44.696;10.522;2023-02-04T10:06:58;11.88;;;7.25;;
56005;SDS011;41888;44.696;10.522;2023-02-04T10:09:24;11.38;;;6.57;;
56005;SDS011;41888;44.696;10.522;2023-02-04T10:11:50;12.60;;;7.63;;
56005;SDS011;41888;44.696;10.522;2023-02-04T10:14:18;13.25;;;7.97;;
56005;SDS011;41888;44.696;10.522;2023-02-04T10:16:48;12.23;;;7.70;;
56005;SDS011;41888;44.696;10.522;2023-02-04T10:19:21;13.13;;;7.95;;
56005;SDS011;41888;44.696;10.522;2023-02-04T10:21:48;14.38;;;8.05;;
56005;SDS011;41888;44.696;10.522;2023-02-04T10:24:21;13.52;;;7.70;;
56005;SDS011;41888;44.696;10.522;2023-02-04T10:26:52;14.85;;;7.97;;
56005;SDS011;41888;44.696;10.522;2023-02-04T10:29:29;11.55;;;6.82;;
56005;SDS011;41888;44.696;10.522;2023-02-04T10:31:56;10.00;;;6.93;;
56005;SDS011;41888;44.696;10.522;2023-02-04T10:34:34;12.43;;;7.22;;
56005;SDS011;41888;44.696;10.522;2023-02-04T10:37:37;11.88;;;7.95;;
56005;SDS011;41888;44.696;10.522;2023-02-04T10:39:56;15.35;;;7.35;;
56005;SDS011;41888;44.696;10.522;2023-02-04T10:42:23;9.90;;;6.90;;
56005;SDS011;41888;44.696;10.522;2023-02-04T10:44:51;9.82;;;6.65;;
56005;SDS011;41888;44.696;10.522;2023-02-04T10:49:55;10.43;;;7.28;;
56005;SDS011;41888;44.696;10.522;2023-02-04T10:52:41;11.25;;;6.75;;
56005;SDS011;41888;44.696;10.522;2023-02-04T10:55:12;9.13;;;6.57;;
56005;SDS011;41888;44.696;10.522;2023-02-04T10:57:42;14.63;;;7.25;;
56005;SDS011;41888;44.696;10.522;2023-02-04T11:00:20;9.63;;;6.45;;
56005;SDS011;41888;44.696;10.522;2023-02-04T11:02:58;9.88;;;6.53;;
56005;SDS011;41888;44.696;10.522;2023-02-04T11:05:35;11.10;;;7.07;;
56005;SDS011;41888;44.696;10.522;2023-02-04T11:08:02;13.77;;;7.85;;
56005;SDS011;41888;44.696;10.522;2023-02-04T11:10:43;11.40;;;7.35;;
56005;SDS011;41888;44.696;10.522;2023-02-04T11:13:18;13.73;;;8.38;;
56005;SDS011;41888;44.696;10.522;2023-02-04T11:15:48;14.13;;;6.95;;
56005;SDS011;41888;44.696;10.522;2023-02-04T11:20:45;13.43;;;7.95;;
56005;SDS011;41888;44.696;10.522;2023-02-04T11:23:34;15.13;;;9.50;;
56005;SDS011;41888;44.696;10.522;2023-02-04T11:26:07;18.38;;;11.32;;
56005;SDS011;41888;44.696;10.522;2023-02-04T11:39:20;17.95;;;10.90;;
56005;SDS011;41888;44.696;10.522;2023-02-04T11:41:46;18.08;;;9.20;;
56005;SDS011;41888;44.696;10.522;2023-02-04T11:44:13;14.82;;;9.00;;
56005;SDS011;41888;44.696;10.522;2023-02-04T11:46:41;13.88;;;8.55;;
56005;SDS011;41888;44.696;10.522;2023-02-04T11:49:13;16.10;;;8.25;;
56005;SDS011;41888;44.696;10.522;2023-02-04T11:51:42;13.32;;;7.57;;
56005;SDS011;41888;44.696;10.522;2023-02-04T11:54:12;11.95;;;6.25;;
56005;SDS011;41888;44.696;10.522;2023-02-04T11:56:41;11.10;;;7.00;;
56005;SDS011;41888;44.696;10.522;2023-02-04T11:59:08;8.18;;;5.25;;
56005;SDS011;41888;44.696;10.522;2023-02-04T12:01:36;8.98;;;5.70;;
56005;SDS011;41888;44.696;10.522;2023-02-04T12:04:04;10.52;;;5.75;;
56005;SDS011;41888;44.696;10.522;2023-02-04T12:06:55;9.43;;;5.93;;
56005;SDS011;41888;44.696;10.522;2023-02-04T12:09:23;10.55;;;5.78;;
56005;SDS011;41888;44.696;10.522;2023-02-04T12:11:51;11.50;;;5.72;;
56005;SDS011;41888;44.696;10.522;2023-02-04T12:14:19;8.82;;;5.65;;
56005;SDS011;41888;44.696;10.522;2023-02-04T12:16:46;10.70;;;5.60;;
56005;SDS011;41888;44.696;10.522;2023-02-04T12:19:15;13.68;;;5.55;;
56005;SDS011;41888;44.696;10.522;2023-02-04T12:21:41;10.00;;;5.90;;
56005;SDS011;41888;44.696;10.522;2023-02-04T12:24:08;16.90;;;6.15;;
56005;SDS011;41888;44.696;10.522;2023-02-04T12:26:34;12.20;;;6.10;;
56005;SDS011;41888;44.696;10.522;2023-02-04T12:29:00;10.82;;;6.95;;
56005;SDS011;41888;44.696;10.522;2023-02-04T12:31:29;9.60;;;6.07;;
56005;SDS011;41888;44.696;10.522;2023-02-04T12:33:56;11.30;;;6.10;;
56005;SDS011;41888;44.696;10.522;2023-02-04T12:36:22;12.10;;;6.60;;
56005;SDS011;41888;44.696;10.522;2023-02-04T12:38:51;10.02;;;6.35;;
56005;SDS011;41888;44.696;10.522;2023-02-04T12:41:17;11.88;;;6.57;;
56005;SDS011;41888;44.696;10.522;2023-02-04T12:43:44;12.18;;;5.90;;
56005;SDS011;41888;44.696;10.522;2023-02-04T12:46:11;11.40;;;6.28;;
56005;SDS011;41888;44.696;10.522;2023-02-04T12:48:37;8.43;;;5.82;;
56005;SDS011;41888;44.696;10.522;2023-02-04T12:51:05;12.25;;;6.78;;
56005;SDS011;41888;44.696;10.522;2023-02-04T12:53:31;10.93;;;6.38;;
56005;SDS011;41888;44.696;10.522;2023-02-04T12:55:58;10.98;;;6.22;;
56005;SDS011;41888;44.696;10.522;2023-02-04T12:58:24;10.18;;;6.78;;
56005;SDS011;41888;44.696;10.522;2023-02-04T13:00:50;18.45;;;8.07;;
56005;SDS011;41888;44.696;10.522;2023-02-04T13:03:16;12.85;;;8.20;;
56005;SDS011;41888;44.696;10.522;2023-02-04T13:05:43;13.15;;;7.85;;
56005;SDS011;41888;44.696;10.522;2023-02-04T13:08:09;14.45;;;8.35;;
56005;SDS011;41888;44.696;10.522;2023-02-04T13:10:35;14.80;;;9.15;;
56005;SDS011;41888;44.696;10.522;2023-02-04T13:13:01;16.80;;;8.88;;
56005;SDS011;41888;44.696;10.522;2023-02-04T13:15:28;13.75;;;8.75;;
56005;SDS011;41888;44.696;10.522;2023-02-04T13:17:54;14.05;;;8.68;;
56005;SDS011;41888;44.696;10.522;2023-02-04T13:20:20;13.95;;;8.93;;
56005;SDS011;41888;44.696;10.522;2023-02-04T13:22:46;14.65;;;9.77;;
56005;SDS011;41888;44.696;10.522;2023-02-04T13:25:12;21.92;;;10.02;;
56005;SDS011;41888;44.696;10.522;2023-02-04T13:27:39;18.05;;;11.02;;
56005;SDS011;41888;44.696;10.522;2023-02-04T13:30:06;14.70;;;10.32;;
56005;SDS011;41888;44.696;10.522;2023-02-04T13:32:33;15.98;;;9.68;;
56005;SDS011;41888;44.696;10.522;2023-02-04T13:34:59;15.48;;;10.02;;
56005;SDS011;41888;44.696;10.522;2023-02-04T13:37:25;14.63;;;9.93;;
56005;SDS011;41888;44.696;10.522;2023-02-04T13:39:51;16.23;;;10.43;;
56005;SDS011;41888;44.696;10.522;2023-02-04T13:42:17;19.95;;;10.65;;
56005;SDS011;41888;44.696;10.522;2023-02-04T13:44:43;20.40;;;11.60;;
56005;SDS011;41888;44.696;10.522;2023-02-04T13:47:09;15.80;;;10.48;;
56005;SDS011;41888;44.696;10.522;2023-02-04T13:49:36;16.85;;;10.32;;
56005;SDS011;41888;44.696;10.522;2023-02-04T13:52:02;18.00;;;10.48;;
56005;SDS011;41888;44.696;10.522;2023-02-04T13:54:28;17.88;;;10.52;;
56005;SDS011;41888;44.696;10.522;2023-02-04T13:56:54;16.65;;;9.43;;
56005;SDS011;41888;44.696;10.522;2023-02-04T13:59:20;15.48;;;10.05;;
56005;SDS011;41888;44.696;10.522;2023-02-04T14:01:46;20.25;;;10.90;;
56005;SDS011;41888;44.696;10.522;2023-02-04T14:04:13;14.55;;;9.40;;
56005;SDS011;41888;44.696;10.522;2023-02-04T14:06:39;14.75;;;9.38;;
56005;SDS011;41888;44.696;10.522;2023-02-04T14:09:08;21.73;;;12.55;;
56005;SDS011;41888;44.696;10.522;2023-02-04T14:11:36;18.48;;;10.93;;
56005;SDS011;41888;44.696;10.522;2023-02-04T14:14:02;18.33;;;11.07;;
56005;SDS011;41888;44.696;10.522;2023-02-04T14:16:28;17.42;;;10.07;;
56005;SDS011;41888;44.696;10.522;2023-02-04T14:18:55;17.13;;;10.48;;
56005;SDS011;41888;44.696;10.522;2023-02-04T14:21:21;19.70;;;10.90;;
56005;SDS011;41888;44.696;10.522;2023-02-04T14:23:47;17.40;;;9.32;;
56005;SDS011;41888;44.696;10.522;2023-02-04T14:26:13;16.38;;;10.07;;
56005;SDS011;41888;44.696;10.522;2023-02-04T14:28:39;18.60;;;9.68;;
56005;SDS011;41888;44.696;10.522;2023-02-04T14:31:05;15.85;;;9.80;;
56005;SDS011;41888;44.696;10.522;2023-02-04T14:33:32;19.77;;;10.00;;